sensor_id;sensor_type;location;lat;lon;timestamp;P1;durP1;ratioP1;P2;durP2;ratioP2
27740;SDS011;15134;48.768;9.184;2022-08-21T00:00:04;6.30;;;2.10;;
27740;SDS011;15134;48.768;9.184;2022-08-21T00:02:37;7.23;;;1.60;;
27740;SDS011;15134;48.768;9.184;2022-08-21T00:05:10;5.15;;;1.70;;
27740;SDS011;15134;48.768;9.184;2022-08-21T00:07:36;7.80;;;2.03;;
27740;SDS011;15134;48.768;9.184;2022-08-21T00:10:02;5.10;;;1.60;;
27740;SDS011;15134;48.768;9.184;2022-08-21T00:12:29;6.10;;;1.92;;
27740;SDS011;15134;48.768;9.184;2022-08-21T00:14:56;5.15;;;1.63;;
27740;SDS011;15134;48.768;9.184;2022-08-21T00:17:22;5.30;;;1.80;;
27740;SDS011;15134;48.768;9.184;2022-08-21T00:19:48;3.83;;;1.70;;
27740;SDS011;15134;48.768;9.184;2022-08-21T00:22:15;6.60;;;2.20;;
27740;SDS011;15134;48.768;9.184;2022-08-21T00:24:42;4.53;;;1.70;;
27740;SDS011;15134;48.768;9.184;2022-08-21T00:27:08;6.57;;;1.90;;
27740;SDS011;15134;48.768;9.184;2022-08-21T00:29:33;5.83;;;1.93;;
27740;SDS011;15134;48.768;9.184;2022-08-21T00:31:59;6.40;;;1.93;;
27740;SDS011;15134;48.768;9.184;2022-08-21T00:34:25;6.67;;;2.07;;
27740;SDS011;15134;48.768;9.184;2022-08-21T00:36:51;4.90;;;1.58;;
27740;SDS011;15134;48.768;9.184;2022-08-21T00:39:17;5.30;;;1.70;;
27740;SDS011;15134;48.768;9.184;2022-08-21T00:41:43;4.77;;;1.70;;
27740;SDS011;15134;48.768;9.184;2022-08-21T00:44:09;5.78;;;1.80;;
27740;SDS011;15134;48.768;9.184;2022-08-21T00:46:38;7.60;;;1.83;;
27740;SDS011;15134;48.768;9.184;2022-08-21T00:49:05;5.43;;;1.80;;
27740;SDS011;15134;48.768;9.184;2022-08-21T00:51:36;5.63;;;2.00;;
27740;SDS011;15134;48.768;9.184;2022-08-21T00:54:07;5.82;;;1.90;;
27740;SDS011;15134;48.768;9.184;2022-08-21T00:56:34;5.70;;;1.92;;
27740;SDS011;15134;48.768;9.184;2022-08-21T00:59:01;4.22;;;1.80;;
27740;SDS011;15134;48.768;9.184;2022-08-21T01:01:28;7.75;;;2.13;;
27740;SDS011;15134;48.768;9.184;2022-08-21T01:03:55;5.82;;;1.70;;
27740;SDS011;15134;48.768;9.184;2022-08-21T01:06:20;4.13;;;1.87;;
27740;SDS011;15134;48.768;9.184;2022-08-21T01:08:46;7.00;;;2.17;;
27740;SDS011;15134;48.768;9.184;2022-08-21T01:11:13;5.75;;;1.80;;
27740;SDS011;15134;48.768;9.184;2022-08-21T01:13:40;5.88;;;2.30;;
27740;SDS011;15134;48.768;9.184;2022-08-21T01:16:12;4.93;;;1.92;;
27740;SDS011;15134;48.768;9.184;2022-08-21T01:18:42;7.65;;;2.10;;
27740;SDS011;15134;48.768;9.184;2022-08-21T01:21:10;5.82;;;2.10;;
27740;SDS011;15134;48.768;9.184;2022-08-21T01:23:36;5.78;;;2.08;;
27740;SDS011;15134;48.768;9.184;2022-08-21T01:26:04;5.75;;;1.92;;
27740;SDS011;15134;48.768;9.184;2022-08-21T01:28:31;6.20;;;1.88;;
27740;SDS011;15134;48.768;9.184;2022-08-21T01:31:09;6.60;;;2.00;;
27740;SDS011;15134;48.768;9.184;2022-08-21T01:33:37;5.07;;;1.88;;
27740;SDS011;15134;48.768;9.184;2022-08-21T01:36:03;5.53;;;2.00;;
27740;SDS011;15134;48.768;9.184;2022-08-21T01:38:29;6.03;;;2.25;;
27740;SDS011;15134;48.768;9.184;2022-08-21T01:40:55;6.97;;;2.65;;
27740;SDS011;15134;48.768;9.184;2022-08-21T01:43:20;7.03;;;2.43;;
27740;SDS011;15134;48.768;9.184;2022-08-21T01:45:46;4.07;;;1.97;;
27740;SDS011;15134;48.768;9.184;2022-08-21T01:48:12;8.03;;;2.20;;
27740;SDS011;15134;48.768;9.184;2022-08-21T01:50:37;5.33;;;2.07;;
27740;SDS011;15134;48.768;9.184;2022-08-21T01:53:03;5.13;;;2.07;;
27740;SDS011;15134;48.768;9.184;2022-08-21T01:55:29;6.80;;;2.07;;
27740;SDS011;15134;48.768;9.184;2022-08-21T01:57:56;8.63;;;2.50;;
27740;SDS011;15134;48.768;9.184;2022-08-21T02:00:24;6.80;;;2.50;;
27740;SDS011;15134;48.768;9.184;2022-08-21T02:05:16;6.88;;;2.58;;
27740;SDS011;15134;48.768;9.184;2022-08-21T02:07:50;5.97;;;2.40;;
27740;SDS011;15134;48.768;9.184;2022-08-21T02:10:19;5.35;;;2.40;;
27740;SDS011;15134;48.768;9.184;2022-08-21T02:12:51;4.85;;;2.30;;
27740;SDS011;15134;48.768;9.184;2022-08-21T02:15:17;5.45;;;2.30;;
27740;SDS011;15134;48.768;9.184;2022-08-21T02:20:10;5.30;;;2.47;;
27740;SDS011;15134;48.768;9.184;2022-08-21T02:22:37;6.22;;;2.30;;
27740;SDS011;15134;48.768;9.184;2022-08-21T02:25:03;5.37;;;2.10;;
27740;SDS011;15134;48.768;9.184;2022-08-21T02:27:29;5.82;;;2.45;;
27740;SDS011;15134;48.768;9.184;2022-08-21T02:30:06;4.97;;;2.15;;
27740;SDS011;15134;48.768;9.184;2022-08-21T02:32:58;7.53;;;2.55;;
27740;SDS011;15134;48.768;9.184;2022-08-21T02:35:25;10.10;;;5.43;;
27740;SDS011;15134;48.768;9.184;2022-08-21T02:40:20;24.30;;;14.30;;
27740;SDS011;15134;48.768;9.184;2022-08-21T02:42:48;20.20;;;11.73;;
27740;SDS011;15134;48.768;9.184;2022-08-21T02:45:15;15.00;;;9.38;;
27740;SDS011;15134;48.768;9.184;2022-08-21T02:47:48;13.23;;;7.63;;
27740;SDS011;15134;48.768;9.184;2022-08-21T02:50:17;9.60;;;5.57;;
27740;SDS011;15134;48.768;9.184;2022-08-21T02:52:48;9.40;;;4.82;;
27740;SDS011;15134;48.768;9.184;2022-08-21T02:55:15;7.88;;;3.70;;
27740;SDS011;15134;48.768;9.184;2022-08-21T02:57:41;7.28;;;2.88;;
27740;SDS011;15134;48.768;9.184;2022-08-21T03:00:07;6.17;;;3.10;;
27740;SDS011;15134;48.768;9.184;2022-08-21T03:02:35;6.80;;;3.05;;
27740;SDS011;15134;48.768;9.184;2022-08-21T03:05:01;7.67;;;2.70;;
27740;SDS011;15134;48.768;9.184;2022-08-21T03:07:28;7.28;;;2.58;;
27740;SDS011;15134;48.768;9.184;2022-08-21T03:09:53;7.67;;;2.67;;
27740;SDS011;15134;48.768;9.184;2022-08-21T03:12:19;6.33;;;2.60;;
27740;SDS011;15134;48.768;9.184;2022-08-21T03:14:45;6.33;;;2.77;;
27740;SDS011;15134;48.768;9.184;2022-08-21T03:17:10;6.10;;;2.10;;
27740;SDS011;15134;48.768;9.184;2022-08-21T03:19:36;6.17;;;2.40;;
27740;SDS011;15134;48.768;9.184;2022-08-21T03:22:02;5.67;;;2.43;;
27740;SDS011;15134;48.768;9.184;2022-08-21T03:24:27;5.57;;;2.17;;
27740;SDS011;15134;48.768;9.184;2022-08-21T03:26:54;5.07;;;2.33;;
27740;SDS011;15134;48.768;9.184;2022-08-21T03:29:20;5.03;;;2.70;;
27740;SDS011;15134;48.768;9.184;2022-08-21T03:31:45;5.40;;;2.30;;
27740;SDS011;15134;48.768;9.184;2022-08-21T03:34:11;6.13;;;2.40;;
27740;SDS011;15134;48.768;9.184;2022-08-21T03:36:37;8.55;;;2.58;;
27740;SDS011;15134;48.768;9.184;2022-08-21T03:39:03;8.10;;;2.47;;
27740;SDS011;15134;48.768;9.184;2022-08-21T03:41:28;6.27;;;2.23;;
27740;SDS011;15134;48.768;9.184;2022-08-21T03:43:54;7.17;;;2.63;;
27740;SDS011;15134;48.768;9.184;2022-08-21T03:46:20;7.33;;;2.70;;
27740;SDS011;15134;48.768;9.184;2022-08-21T03:48:45;5.07;;;2.63;;
27740;SDS011;15134;48.768;9.184;2022-08-21T03:51:11;8.30;;;4.70;;
27740;SDS011;15134;48.768;9.184;2022-08-21T03:53:37;10.30;;;6.20;;
27740;SDS011;15134;48.768;9.184;2022-08-21T03:56:03;9.73;;;3.83;;
27740;SDS011;15134;48.768;9.184;2022-08-21T03:58:29;6.25;;;3.25;;
27740;SDS011;15134;48.768;9.184;2022-08-21T04:00:55;6.90;;;2.90;;
27740;SDS011;15134;48.768;9.184;2022-08-21T04:03:23;7.43;;;2.75;;
27740;SDS011;15134;48.768;9.184;2022-08-21T04:05:49;4.63;;;2.40;;
27740;SDS011;15134;48.768;9.184;2022-08-21T04:08:15;6.73;;;2.70;;
27740;SDS011;15134;48.768;9.184;2022-08-21T04:10:45;6.40;;;2.00;;
27740;SDS011;15134;48.768;9.184;2022-08-21T04:13:13;6.38;;;2.88;;
27740;SDS011;15134;48.768;9.184;2022-08-21T04:15:40;6.88;;;3.20;;
27740;SDS011;15134;48.768;9.184;2022-08-21T04:18:06;6.68;;;2.63;;
27740;SDS011;15134;48.768;9.184;2022-08-21T04:20:33;5.97;;;2.60;;
27740;SDS011;15134;48.768;9.184;2022-08-21T04:22:59;6.50;;;3.03;;
27740;SDS011;15134;48.768;9.184;2022-08-21T04:25:26;5.88;;;2.63;;
27740;SDS011;15134;48.768;9.184;2022-08-21T04:27:51;6.23;;;2.67;;
27740;SDS011;15134;48.768;9.184;2022-08-21T04:30:17;7.50;;;2.80;;
27740;SDS011;15134;48.768;9.184;2022-08-21T04:32:47;10.43;;;3.42;;
27740;SDS011;15134;48.768;9.184;2022-08-21T04:35:16;5.72;;;2.38;;
27740;SDS011;15134;48.768;9.184;2022-08-21T04:37:43;6.68;;;2.40;;
27740;SDS011;15134;48.768;9.184;2022-08-21T04:40:11;4.70;;;2.43;;
27740;SDS011;15134;48.768;9.184;2022-08-21T04:42:46;8.65;;;2.42;;
27740;SDS011;15134;48.768;9.184;2022-08-21T04:45:17;7.18;;;2.63;;
27740;SDS011;15134;48.768;9.184;2022-08-21T04:47:49;7.15;;;2.65;;
27740;SDS011;15134;48.768;9.184;2022-08-21T04:50:16;5.82;;;2.83;;
27740;SDS011;15134;48.768;9.184;2022-08-21T04:52:53;5.82;;;2.38;;
27740;SDS011;15134;48.768;9.184;2022-08-21T04:55:19;9.73;;;3.25;;
27740;SDS011;15134;48.768;9.184;2022-08-21T05:00:12;6.38;;;2.80;;
27740;SDS011;15134;48.768;9.184;2022-08-21T05:02:39;7.00;;;2.90;;
27740;SDS011;15134;48.768;9.184;2022-08-21T05:05:06;11.43;;;3.15;;
27740;SDS011;15134;48.768;9.184;2022-08-21T05:07:32;7.65;;;3.00;;
27740;SDS011;15134;48.768;9.184;2022-08-21T05:09:59;9.82;;;3.50;;
27740;SDS011;15134;48.768;9.184;2022-08-21T05:12:26;15.60;;;9.35;;
27740;SDS011;15134;48.768;9.184;2022-08-21T05:14:51;7.43;;;3.10;;
27740;SDS011;15134;48.768;9.184;2022-08-21T05:17:17;6.50;;;2.93;;
27740;SDS011;15134;48.768;9.184;2022-08-21T05:19:43;8.50;;;5.23;;
27740;SDS011;15134;48.768;9.184;2022-08-21T05:22:09;19.17;;;11.33;;
27740;SDS011;15134;48.768;9.184;2022-08-21T05:24:34;40.10;;;25.37;;
27740;SDS011;15134;48.768;9.184;2022-08-21T05:27:00;50.00;;;28.97;;
27740;SDS011;15134;48.768;9.184;2022-08-21T05:29:26;65.43;;;38.97;;
27740;SDS011;15134;48.768;9.184;2022-08-21T05:31:52;51.03;;;30.85;;
27740;SDS011;15134;48.768;9.184;2022-08-21T05:34:19;38.10;;;20.13;;
27740;SDS011;15134;48.768;9.184;2022-08-21T05:36:47;22.08;;;13.55;;
27740;SDS011;15134;48.768;9.184;2022-08-21T05:39:13;14.13;;;6.93;;
27740;SDS011;15134;48.768;9.184;2022-08-21T05:41:39;10.60;;;5.70;;
27740;SDS011;15134;48.768;9.184;2022-08-21T05:44:05;11.63;;;5.17;;
27740;SDS011;15134;48.768;9.184;2022-08-21T05:46:30;10.47;;;5.03;;
27740;SDS011;15134;48.768;9.184;2022-08-21T05:48:56;11.00;;;5.70;;
27740;SDS011;15134;48.768;9.184;2022-08-21T05:51:22;8.43;;;5.27;;
27740;SDS011;15134;48.768;9.184;2022-08-21T05:53:48;5.53;;;2.75;;
27740;SDS011;15134;48.768;9.184;2022-08-21T05:56:14;12.27;;;4.93;;
27740;SDS011;15134;48.768;9.184;2022-08-21T06:01:07;16.73;;;9.80;;
27740;SDS011;15134;48.768;9.184;2022-08-21T06:06:01;24.58;;;15.40;;
27740;SDS011;15134;48.768;9.184;2022-08-21T06:08:27;32.33;;;18.35;;
27740;SDS011;15134;48.768;9.184;2022-08-21T06:10:54;33.33;;;20.60;;
27740;SDS011;15134;48.768;9.184;2022-08-21T06:13:22;25.90;;;16.70;;
27740;SDS011;15134;48.768;9.184;2022-08-21T06:15:48;38.22;;;22.95;;
27740;SDS011;15134;48.768;9.184;2022-08-21T06:20:40;50.93;;;35.83;;
27740;SDS011;15134;48.768;9.184;2022-08-21T06:25:33;35.08;;;23.77;;
27740;SDS011;15134;48.768;9.184;2022-08-21T06:30:29;15.45;;;8.77;;
27740;SDS011;15134;48.768;9.184;2022-08-21T06:32:55;12.95;;;7.63;;
27740;SDS011;15134;48.768;9.184;2022-08-21T06:35:21;33.57;;;19.83;;
27740;SDS011;15134;48.768;9.184;2022-08-21T06:37:46;60.13;;;37.83;;
27740;SDS011;15134;48.768;9.184;2022-08-21T06:40:12;45.70;;;30.73;;
27740;SDS011;15134;48.768;9.184;2022-08-21T06:42:38;69.40;;;42.53;;
27740;SDS011;15134;48.768;9.184;2022-08-21T06:45:04;19.38;;;10.40;;
27740;SDS011;15134;48.768;9.184;2022-08-21T06:47:30;14.30;;;7.65;;
27740;SDS011;15134;48.768;9.184;2022-08-21T06:49:56;12.40;;;6.83;;
27740;SDS011;15134;48.768;9.184;2022-08-21T06:52:22;8.85;;;4.80;;
27740;SDS011;15134;48.768;9.184;2022-08-21T06:54:47;8.47;;;3.87;;
27740;SDS011;15134;48.768;9.184;2022-08-21T06:57:13;6.97;;;2.80;;
27740;SDS011;15134;48.768;9.184;2022-08-21T06:59:39;5.93;;;2.70;;
27740;SDS011;15134;48.768;9.184;2022-08-21T07:02:04;25.13;;;19.75;;
27740;SDS011;15134;48.768;9.184;2022-08-21T07:04:30;10.15;;;3.90;;
27740;SDS011;15134;48.768;9.184;2022-08-21T07:06:56;6.95;;;3.35;;
27740;SDS011;15134;48.768;9.184;2022-08-21T07:09:22;9.57;;;5.57;;
27740;SDS011;15134;48.768;9.184;2022-08-21T07:11:49;40.80;;;32.45;;
27740;SDS011;15134;48.768;9.184;2022-08-21T07:14:17;40.42;;;30.05;;
27740;SDS011;15134;48.768;9.184;2022-08-21T07:16:42;10.85;;;6.90;;
27740;SDS011;15134;48.768;9.184;2022-08-21T07:19:08;14.45;;;8.18;;
27740;SDS011;15134;48.768;9.184;2022-08-21T07:24:00;9.00;;;4.93;;
27740;SDS011;15134;48.768;9.184;2022-08-21T07:28:51;10.60;;;5.57;;
27740;SDS011;15134;48.768;9.184;2022-08-21T07:31:18;13.25;;;9.93;;
27740;SDS011;15134;48.768;9.184;2022-08-21T07:33:46;18.33;;;14.75;;
27740;SDS011;15134;48.768;9.184;2022-08-21T07:36:13;27.42;;;22.65;;
27740;SDS011;15134;48.768;9.184;2022-08-21T07:38:39;37.53;;;33.50;;
27740;SDS011;15134;48.768;9.184;2022-08-21T07:41:13;14.02;;;9.60;;
27740;SDS011;15134;48.768;9.184;2022-08-21T07:43:41;6.10;;;2.83;;
27740;SDS011;15134;48.768;9.184;2022-08-21T07:46:08;7.65;;;3.45;;
27740;SDS011;15134;48.768;9.184;2022-08-21T07:48:33;8.20;;;4.72;;
27740;SDS011;15134;48.768;9.184;2022-08-21T07:51:01;7.03;;;3.20;;
27740;SDS011;15134;48.768;9.184;2022-08-21T07:53:33;6.15;;;2.60;;
27740;SDS011;15134;48.768;9.184;2022-08-21T07:55:59;6.47;;;2.70;;
27740;SDS011;15134;48.768;9.184;2022-08-21T07:58:25;13.60;;;9.82;;
27740;SDS011;15134;48.768;9.184;2022-08-21T08:00:51;4.47;;;2.20;;
27740;SDS011;15134;48.768;9.184;2022-08-21T08:03:17;6.93;;;2.67;;
27740;SDS011;15134;48.768;9.184;2022-08-21T08:05:42;9.65;;;6.88;;
27740;SDS011;15134;48.768;9.184;2022-08-21T08:08:08;20.58;;;17.95;;
27740;SDS011;15134;48.768;9.184;2022-08-21T08:10:35;10.25;;;6.10;;
27740;SDS011;15134;48.768;9.184;2022-08-21T08:13:02;8.63;;;6.22;;
27740;SDS011;15134;48.768;9.184;2022-08-21T08:15:28;8.25;;;4.47;;
27740;SDS011;15134;48.768;9.184;2022-08-21T08:17:54;7.68;;;4.28;;
27740;SDS011;15134;48.768;9.184;2022-08-21T08:20:21;8.88;;;3.67;;
27740;SDS011;15134;48.768;9.184;2022-08-21T08:22:48;5.15;;;2.75;;
27740;SDS011;15134;48.768;9.184;2022-08-21T08:25:15;8.52;;;5.57;;
27740;SDS011;15134;48.768;9.184;2022-08-21T08:27:42;7.80;;;5.47;;
27740;SDS011;15134;48.768;9.184;2022-08-21T08:30:10;4.78;;;2.40;;
27740;SDS011;15134;48.768;9.184;2022-08-21T08:32:40;6.82;;;3.10;;
27740;SDS011;15134;48.768;9.184;2022-08-21T08:35:06;6.03;;;3.17;;
27740;SDS011;15134;48.768;9.184;2022-08-21T08:37:33;6.93;;;4.40;;
27740;SDS011;15134;48.768;9.184;2022-08-21T08:40:03;6.72;;;3.80;;
27740;SDS011;15134;48.768;9.184;2022-08-21T08:42:33;6.32;;;3.72;;
27740;SDS011;15134;48.768;9.184;2022-08-21T08:45:05;9.60;;;6.63;;
27740;SDS011;15134;48.768;9.184;2022-08-21T08:47:35;9.68;;;6.63;;
27740;SDS011;15134;48.768;9.184;2022-08-21T08:50:18;9.57;;;5.80;;
27740;SDS011;15134;48.768;9.184;2022-08-21T08:52:58;6.70;;;2.78;;
27740;SDS011;15134;48.768;9.184;2022-08-21T08:55:42;6.25;;;3.08;;
27740;SDS011;15134;48.768;9.184;2022-08-21T08:58:16;6.45;;;2.88;;
27740;SDS011;15134;48.768;9.184;2022-08-21T09:00:55;7.07;;;3.92;;
27740;SDS011;15134;48.768;9.184;2022-08-21T09:03:25;13.48;;;11.93;;
27740;SDS011;15134;48.768;9.184;2022-08-21T09:05:56;9.10;;;7.22;;
27740;SDS011;15134;48.768;9.184;2022-08-21T09:13:56;8.23;;;3.70;;
27740;SDS011;15134;48.768;9.184;2022-08-21T09:16:47;5.28;;;2.00;;
27740;SDS011;15134;48.768;9.184;2022-08-21T09:24:51;8.55;;;4.45;;
27740;SDS011;15134;48.768;9.184;2022-08-21T09:27:32;10.73;;;8.23;;
27740;SDS011;15134;48.768;9.184;2022-08-21T09:29:59;7.63;;;4.60;;
27740;SDS011;15134;48.768;9.184;2022-08-21T09:32:26;10.52;;;7.88;;
27740;SDS011;15134;48.768;9.184;2022-08-21T09:34:55;27.77;;;25.17;;
27740;SDS011;15134;48.768;9.184;2022-08-21T09:37:21;6.80;;;2.97;;
27740;SDS011;15134;48.768;9.184;2022-08-21T09:39:47;7.40;;;2.60;;
27740;SDS011;15134;48.768;9.184;2022-08-21T09:42:20;8.48;;;2.90;;
27740;SDS011;15134;48.768;9.184;2022-08-21T09:44:48;6.13;;;3.10;;
27740;SDS011;15134;48.768;9.184;2022-08-21T09:47:29;6.50;;;3.40;;
27740;SDS011;15134;48.768;9.184;2022-08-21T09:49:55;7.55;;;2.85;;
27740;SDS011;15134;48.768;9.184;2022-08-21T09:52:21;8.85;;;3.17;;
27740;SDS011;15134;48.768;9.184;2022-08-21T09:54:52;7.75;;;2.50;;
27740;SDS011;15134;48.768;9.184;2022-08-21T09:57:23;32.65;;;24.48;;
27740;SDS011;15134;48.768;9.184;2022-08-21T10:00:08;11.80;;;6.43;;
27740;SDS011;15134;48.768;9.184;2022-08-21T10:02:46;27.38;;;20.17;;
27740;SDS011;15134;48.768;9.184;2022-08-21T10:07:43;7.35;;;3.55;;
27740;SDS011;15134;48.768;9.184;2022-08-21T10:18:22;11.68;;;3.22;;
27740;SDS011;15134;48.768;9.184;2022-08-21T10:23:45;10.30;;;4.90;;
27740;SDS011;15134;48.768;9.184;2022-08-21T10:26:26;7.63;;;4.57;;
27740;SDS011;15134;48.768;9.184;2022-08-21T10:31:55;9.68;;;4.22;;
27740;SDS011;15134;48.768;9.184;2022-08-21T10:37:12;13.95;;;9.07;;
27740;SDS011;15134;48.768;9.184;2022-08-21T10:53:55;13.63;;;7.38;;
27740;SDS011;15134;48.768;9.184;2022-08-21T10:56:38;8.73;;;3.90;;
27740;SDS011;15134;48.768;9.184;2022-08-21T11:02:00;7.78;;;3.65;;
27740;SDS011;15134;48.768;9.184;2022-08-21T11:04:41;7.38;;;3.10;;
27740;SDS011;15134;48.768;9.184;2022-08-21T11:07:11;11.27;;;3.30;;
27740;SDS011;15134;48.768;9.184;2022-08-21T11:09:42;9.88;;;4.47;;
27740;SDS011;15134;48.768;9.184;2022-08-21T11:12:15;8.63;;;3.83;;
27740;SDS011;15134;48.768;9.184;2022-08-21T11:15:05;12.63;;;4.40;;
27740;SDS011;15134;48.768;9.184;2022-08-21T11:17:57;11.15;;;5.25;;
27740;SDS011;15134;48.768;9.184;2022-08-21T11:20:38;12.48;;;5.35;;
27740;SDS011;15134;48.768;9.184;2022-08-21T11:25:45;8.82;;;3.15;;
27740;SDS011;15134;48.768;9.184;2022-08-21T11:28:21;9.45;;;3.95;;
27740;SDS011;15134;48.768;9.184;2022-08-21T11:36:14;10.98;;;3.78;;
27740;SDS011;15134;48.768;9.184;2022-08-21T11:38:56;7.80;;;3.30;;
27740;SDS011;15134;48.768;9.184;2022-08-21T11:41:29;10.68;;;3.47;;
27740;SDS011;15134;48.768;9.184;2022-08-21T11:49:16;8.13;;;3.00;;
27740;SDS011;15134;48.768;9.184;2022-08-21T11:52:01;10.27;;;3.83;;
27740;SDS011;15134;48.768;9.184;2022-08-21T11:57:25;10.25;;;3.67;;
27740;SDS011;15134;48.768;9.184;2022-08-21T12:00:01;9.65;;;3.95;;
27740;SDS011;15134;48.768;9.184;2022-08-21T12:03:09;10.15;;;4.82;;
27740;SDS011;15134;48.768;9.184;2022-08-21T12:05:32;9.13;;;4.97;;
27740;SDS011;15134;48.768;9.184;2022-08-21T12:08:15;13.27;;;8.75;;
27740;SDS011;15134;48.768;9.184;2022-08-21T12:11:00;6.70;;;3.17;;
27740;SDS011;15134;48.768;9.184;2022-08-21T12:13:33;7.47;;;3.25;;
27740;SDS011;15134;48.768;9.184;2022-08-21T12:16:14;9.75;;;4.20;;
27740;SDS011;15134;48.768;9.184;2022-08-21T12:19:01;7.68;;;3.58;;
27740;SDS011;15134;48.768;9.184;2022-08-21T12:26:56;10.20;;;5.43;;
27740;SDS011;15134;48.768;9.184;2022-08-21T12:29:45;10.90;;;6.32;;
27740;SDS011;15134;48.768;9.184;2022-08-21T12:34:44;9.75;;;4.95;;
27740;SDS011;15134;48.768;9.184;2022-08-21T12:37:16;9.65;;;4.00;;
27740;SDS011;15134;48.768;9.184;2022-08-21T12:39:44;9.02;;;4.15;;
27740;SDS011;15134;48.768;9.184;2022-08-21T12:42:17;8.45;;;3.55;;
27740;SDS011;15134;48.768;9.184;2022-08-21T12:44:46;10.50;;;4.00;;
27740;SDS011;15134;48.768;9.184;2022-08-21T12:47:44;8.10;;;3.33;;
27740;SDS011;15134;48.768;9.184;2022-08-21T12:50:16;7.68;;;3.10;;
27740;SDS011;15134;48.768;9.184;2022-08-21T12:53:09;7.13;;;3.28;;
27740;SDS011;15134;48.768;9.184;2022-08-21T12:55:40;5.53;;;2.92;;
27740;SDS011;15134;48.768;9.184;2022-08-21T12:58:16;7.32;;;3.92;;
27740;SDS011;15134;48.768;9.184;2022-08-21T13:00:53;10.65;;;4.90;;
27740;SDS011;15134;48.768;9.184;2022-08-21T13:03:22;6.57;;;3.13;;
27740;SDS011;15134;48.768;9.184;2022-08-21T13:05:49;6.75;;;3.70;;
27740;SDS011;15134;48.768;9.184;2022-08-21T13:08:18;12.73;;;6.07;;
27740;SDS011;15134;48.768;9.184;2022-08-21T13:10:46;10.48;;;4.47;;
27740;SDS011;15134;48.768;9.184;2022-08-21T13:13:21;6.95;;;3.63;;
27740;SDS011;15134;48.768;9.184;2022-08-21T13:15:48;7.65;;;3.75;;
27740;SDS011;15134;48.768;9.184;2022-08-21T13:20:50;7.90;;;3.88;;
27740;SDS011;15134;48.768;9.184;2022-08-21T13:23:19;7.93;;;3.53;;
27740;SDS011;15134;48.768;9.184;2022-08-21T13:25:50;9.55;;;3.58;;
27740;SDS011;15134;48.768;9.184;2022-08-21T13:28:16;8.00;;;3.47;;
27740;SDS011;15134;48.768;9.184;2022-08-21T13:30:43;7.90;;;3.20;;
27740;SDS011;15134;48.768;9.184;2022-08-21T13:33:11;7.63;;;3.50;;
27740;SDS011;15134;48.768;9.184;2022-08-21T13:35:47;7.90;;;3.50;;
27740;SDS011;15134;48.768;9.184;2022-08-21T13:38:24;9.57;;;4.50;;
27740;SDS011;15134;48.768;9.184;2022-08-21T13:40:56;9.77;;;3.97;;
27740;SDS011;15134;48.768;9.184;2022-08-21T13:43:28;12.90;;;6.60;;
27740;SDS011;15134;48.768;9.184;2022-08-21T13:45:57;7.80;;;3.70;;
27740;SDS011;15134;48.768;9.184;2022-08-21T13:48:25;7.80;;;3.53;;
27740;SDS011;15134;48.768;9.184;2022-08-21T13:50:55;9.88;;;3.35;;
27740;SDS011;15134;48.768;9.184;2022-08-21T13:53:29;16.08;;;5.88;;
27740;SDS011;15134;48.768;9.184;2022-08-21T13:56:20;8.18;;;3.70;;
27740;SDS011;15134;48.768;9.184;2022-08-21T13:58:48;6.65;;;3.50;;
27740;SDS011;15134;48.768;9.184;2022-08-21T14:01:25;8.73;;;3.72;;
27740;SDS011;15134;48.768;9.184;2022-08-21T14:03:53;8.65;;;3.17;;
27740;SDS011;15134;48.768;9.184;2022-08-21T14:06:26;8.05;;;3.55;;
27740;SDS011;15134;48.768;9.184;2022-08-21T14:08:57;7.43;;;3.33;;
27740;SDS011;15134;48.768;9.184;2022-08-21T14:11:26;9.18;;;3.00;;
27740;SDS011;15134;48.768;9.184;2022-08-21T14:14:00;9.10;;;3.97;;
27740;SDS011;15134;48.768;9.184;2022-08-21T14:16:40;8.45;;;3.90;;
27740;SDS011;15134;48.768;9.184;2022-08-21T14:19:10;9.68;;;4.53;;
27740;SDS011;15134;48.768;9.184;2022-08-21T14:21:43;8.60;;;5.28;;
27740;SDS011;15134;48.768;9.184;2022-08-21T14:24:11;9.63;;;3.40;;
27740;SDS011;15134;48.768;9.184;2022-08-21T14:27:01;7.35;;;3.75;;
27740;SDS011;15134;48.768;9.184;2022-08-21T14:29:32;8.63;;;5.00;;
27740;SDS011;15134;48.768;9.184;2022-08-21T14:32:00;7.07;;;3.88;;
27740;SDS011;15134;48.768;9.184;2022-08-21T14:34:41;7.07;;;3.33;;
27740;SDS011;15134;48.768;9.184;2022-08-21T14:37:07;6.13;;;3.03;;
27740;SDS011;15134;48.768;9.184;2022-08-21T14:39:33;10.93;;;3.93;;
27740;SDS011;15134;48.768;9.184;2022-08-21T14:41:58;9.02;;;3.35;;
27740;SDS011;15134;48.768;9.184;2022-08-21T14:44:25;9.40;;;4.43;;
27740;SDS011;15134;48.768;9.184;2022-08-21T14:46:51;8.32;;;3.78;;
27740;SDS011;15134;48.768;9.184;2022-08-21T14:49:18;9.32;;;3.47;;
27740;SDS011;15134;48.768;9.184;2022-08-21T14:51:44;7.10;;;3.22;;
27740;SDS011;15134;48.768;9.184;2022-08-21T14:54:09;6.22;;;3.28;;
27740;SDS011;15134;48.768;9.184;2022-08-21T14:56:35;6.93;;;3.47;;
27740;SDS011;15134;48.768;9.184;2022-08-21T14:59:04;8.38;;;3.47;;
27740;SDS011;15134;48.768;9.184;2022-08-21T15:01:32;7.97;;;3.17;;
27740;SDS011;15134;48.768;9.184;2022-08-21T15:04:00;8.55;;;4.50;;
27740;SDS011;15134;48.768;9.184;2022-08-21T15:06:25;9.50;;;5.37;;
27740;SDS011;15134;48.768;9.184;2022-08-21T15:08:51;6.63;;;2.88;;
27740;SDS011;15134;48.768;9.184;2022-08-21T15:11:18;9.07;;;2.90;;
27740;SDS011;15134;48.768;9.184;2022-08-21T15:13:46;7.70;;;3.25;;
27740;SDS011;15134;48.768;9.184;2022-08-21T15:16:14;7.97;;;4.68;;
27740;SDS011;15134;48.768;9.184;2022-08-21T15:18:39;8.77;;;3.90;;
27740;SDS011;15134;48.768;9.184;2022-08-21T15:21:06;7.95;;;3.80;;
27740;SDS011;15134;48.768;9.184;2022-08-21T15:23:32;11.50;;;6.45;;
27740;SDS011;15134;48.768;9.184;2022-08-21T15:25:58;11.05;;;4.28;;
27740;SDS011;15134;48.768;9.184;2022-08-21T15:28:24;7.93;;;4.18;;
27740;SDS011;15134;48.768;9.184;2022-08-21T15:30:50;7.38;;;3.13;;
27740;SDS011;15134;48.768;9.184;2022-08-21T15:33:16;12.75;;;5.78;;
27740;SDS011;15134;48.768;9.184;2022-08-21T15:35:43;6.60;;;3.40;;
27740;SDS011;15134;48.768;9.184;2022-08-21T15:38:11;10.38;;;3.72;;
27740;SDS011;15134;48.768;9.184;2022-08-21T15:40:38;8.35;;;3.97;;
27740;SDS011;15134;48.768;9.184;2022-08-21T15:43:05;10.55;;;5.68;;
27740;SDS011;15134;48.768;9.184;2022-08-21T15:45:34;6.93;;;3.47;;
27740;SDS011;15134;48.768;9.184;2022-08-21T15:48:00;10.68;;;4.85;;
27740;SDS011;15134;48.768;9.184;2022-08-21T15:50:26;12.35;;;6.47;;
27740;SDS011;15134;48.768;9.184;2022-08-21T15:52:53;10.40;;;5.32;;
27740;SDS011;15134;48.768;9.184;2022-08-21T15:55:19;8.15;;;3.85;;
27740;SDS011;15134;48.768;9.184;2022-08-21T15:57:46;8.00;;;3.58;;
27740;SDS011;15134;48.768;9.184;2022-08-21T16:00:14;9.20;;;4.47;;
27740;SDS011;15134;48.768;9.184;2022-08-21T16:02:46;10.95;;;4.82;;
27740;SDS011;15134;48.768;9.184;2022-08-21T16:05:14;6.90;;;3.20;;
27740;SDS011;15134;48.768;9.184;2022-08-21T16:07:44;7.13;;;2.80;;
27740;SDS011;15134;48.768;9.184;2022-08-21T16:10:11;8.27;;;4.47;;
27740;SDS011;15134;48.768;9.184;2022-08-21T16:12:40;9.45;;;3.40;;
27740;SDS011;15134;48.768;9.184;2022-08-21T16:15:08;7.63;;;3.17;;
27740;SDS011;15134;48.768;9.184;2022-08-21T16:17:36;11.68;;;5.70;;
27740;SDS011;15134;48.768;9.184;2022-08-21T16:20:04;10.63;;;4.50;;
27740;SDS011;15134;48.768;9.184;2022-08-21T16:22:33;7.28;;;3.65;;
27740;SDS011;15134;48.768;9.184;2022-08-21T16:24:59;6.75;;;3.22;;
27740;SDS011;15134;48.768;9.184;2022-08-21T16:27:24;5.88;;;2.50;;
27740;SDS011;15134;48.768;9.184;2022-08-21T16:29:50;4.95;;;2.75;;
27740;SDS011;15134;48.768;9.184;2022-08-21T16:32:16;5.65;;;3.20;;
27740;SDS011;15134;48.768;9.184;2022-08-21T16:34:44;9.95;;;5.45;;